sensor_id;sensor_type;location;lat;lon;timestamp;temperature;humidity
25352;DHT22;13304;48.464;8.712;2023-06-22T00:02:15;24.30;75.80
25352;DHT22;13304;48.464;8.712;2023-06-22T00:04:42;24.20;75.90
25352;DHT22;13304;48.464;8.712;2023-06-22T00:07:08;24.20;76.00
25352;DHT22;13304;48.464;8.712;2023-06-22T00:09:36;24.20;76.00
25352;DHT22;13304;48.464;8.712;2023-06-22T00:12:02;24.20;76.10
25352;DHT22;13304;48.464;8.712;2023-06-22T00:14:28;24.20;76.10
25352;DHT22;13304;48.464;8.712;2023-06-22T00:17:01;24.20;76.00
25352;DHT22;13304;48.464;8.712;2023-06-22T00:19:26;24.10;76.20
25352;DHT22;13304;48.464;8.712;2023-06-22T00:21:52;24.20;76.20
25352;DHT22;13304;48.464;8.712;2023-06-22T00:24:21;24.20;76.40
25352;DHT22;13304;48.464;8.712;2023-06-22T00:26:48;24.10;76.40
25352;DHT22;13304;48.464;8.712;2023-06-22T00:29:14;24.10;76.40
25352;DHT22;13304;48.464;8.712;2023-06-22T00:31:41;24.10;76.40
25352;DHT22;13304;48.464;8.712;2023-06-22T00:34:08;24.10;76.50
25352;DHT22;13304;48.464;8.712;2023-06-22T00:36:34;24.10;76.40
25352;DHT22;13304;48.464;8.712;2023-06-22T00:39:00;24.10;76.20
25352;DHT22;13304;48.464;8.712;2023-06-22T00:41:26;24.00;75.90
25352;DHT22;13304;48.464;8.712;2023-06-22T00:43:54;24.00;75.80
25352;DHT22;13304;48.464;8.712;2023-06-22T00:46:21;24.00;75.90
25352;DHT22;13304;48.464;8.712;2023-06-22T00:48:48;23.90;76.00
25352;DHT22;13304;48.464;8.712;2023-06-22T00:51:15;23.90;76.10
25352;DHT22;13304;48.464;8.712;2023-06-22T00:53:41;23.90;76.20
25352;DHT22;13304;48.464;8.712;2023-06-22T00:56:09;23.90;76.30
25352;DHT22;13304;48.464;8.712;2023-06-22T00:58:37;23.80;76.30
25352;DHT22;13304;48.464;8.712;2023-06-22T01:01:07;23.80;76.60
25352;DHT22;13304;48.464;8.712;2023-06-22T01:03:33;23.80;76.80
25352;DHT22;13304;48.464;8.712;2023-06-22T01:06:08;23.70;77.00
25352;DHT22;13304;48.464;8.712;2023-06-22T01:08:41;23.70;77.50
25352;DHT22;13304;48.464;8.712;2023-06-22T01:11:16;23.70;77.40
25352;DHT22;13304;48.464;8.712;2023-06-22T01:14:04;23.70;77.60
25352;DHT22;13304;48.464;8.712;2023-06-22T01:16:35;23.60;78.20
25352;DHT22;13304;48.464;8.712;2023-06-22T01:19:29;23.60;78.10
25352;DHT22;13304;48.464;8.712;2023-06-22T01:22:01;23.50;78.00
25352;DHT22;13304;48.464;8.712;2023-06-22T01:30:07;23.50;78.40
25352;DHT22;13304;48.464;8.712;2023-06-22T01:32:37;23.60;78.40
25352;DHT22;13304;48.464;8.712;2023-06-22T01:35:06;23.60;78.40
25352;DHT22;13304;48.464;8.712;2023-06-22T01:37:33;23.60;78.40
25352;DHT22;13304;48.464;8.712;2023-06-22T01:40:00;23.60;78.30
25352;DHT22;13304;48.464;8.712;2023-06-22T01:42:27;23.60;78.50
25352;DHT22;13304;48.464;8.712;2023-06-22T01:45:04;23.60;78.50
25352;DHT22;13304;48.464;8.712;2023-06-22T01:47:31;23.50;78.30
25352;DHT22;13304;48.464;8.712;2023-06-22T01:49:57;23.50;78.30
25352;DHT22;13304;48.464;8.712;2023-06-22T01:52:24;23.50;78.30
25352;DHT22;13304;48.464;8.712;2023-06-22T01:54:50;23.50;78.50
25352;DHT22;13304;48.464;8.712;2023-06-22T01:57:16;23.40;78.70
25352;DHT22;13304;48.464;8.712;2023-06-22T02:00:01;23.40;78.80
25352;DHT22;13304;48.464;8.712;2023-06-22T02:02:41;23.30;79.40
25352;DHT22;13304;48.464;8.712;2023-06-22T02:05:09;23.30;79.20
25352;DHT22;13304;48.464;8.712;2023-06-22T02:08:00;23.30;79.30
25352;DHT22;13304;48.464;8.712;2023-06-22T02:10:28;23.20;80.20
25352;DHT22;13304;48.464;8.712;2023-06-22T02:12:54;23.20;79.80
25352;DHT22;13304;48.464;8.712;2023-06-22T02:15:22;23.20;80.00
25352;DHT22;13304;48.464;8.712;2023-06-22T02:17:48;23.10;80.20
25352;DHT22;13304;48.464;8.712;2023-06-22T02:20:14;23.10;80.10
25352;DHT22;13304;48.464;8.712;2023-06-22T02:22:49;23.10;80.80
25352;DHT22;13304;48.464;8.712;2023-06-22T02:25:15;23.10;80.90
25352;DHT22;13304;48.464;8.712;2023-06-22T02:27:41;23.10;80.80
25352;DHT22;13304;48.464;8.712;2023-06-22T02:30:08;23.10;81.10
25352;DHT22;13304;48.464;8.712;2023-06-22T02:32:37;23.10;81.10
25352;DHT22;13304;48.464;8.712;2023-06-22T02:35:03;23.00;81.10
25352;DHT22;13304;48.464;8.712;2023-06-22T02:37:32;23.00;81.90
25352;DHT22;13304;48.464;8.712;2023-06-22T02:39:58;23.00;81.00
25352;DHT22;13304;48.464;8.712;2023-06-22T02:42:23;23.00;80.90
25352;DHT22;13304;48.464;8.712;2023-06-22T02:44:49;23.10;80.90
25352;DHT22;13304;48.464;8.712;2023-06-22T02:47:16;23.10;81.10
25352;DHT22;13304;48.464;8.712;2023-06-22T02:49:41;23.00;81.20
25352;DHT22;13304;48.464;8.712;2023-06-22T02:52:07;23.10;81.20
25352;DHT22;13304;48.464;8.712;2023-06-22T02:54:33;23.10;81.20
25352;DHT22;13304;48.464;8.712;2023-06-22T02:56:59;23.10;81.00
25352;DHT22;13304;48.464;8.712;2023-06-22T02:59:30;23.10;80.90
25352;DHT22;13304;48.464;8.712;2023-06-22T03:01:56;23.10;80.80
25352;DHT22;13304;48.464;8.712;2023-06-22T03:04:22;23.10;80.80
25352;DHT22;13304;48.464;8.712;2023-06-22T03:06:49;23.10;80.70
25352;DHT22;13304;48.464;8.712;2023-06-22T03:09:17;23.10;80.60
25352;DHT22;13304;48.464;8.712;2023-06-22T03:11:43;23.10;80.50
25352;DHT22;13304;48.464;8.712;2023-06-22T03:14:08;23.10;80.60
25352;DHT22;13304;48.464;8.712;2023-06-22T03:16:34;23.10;80.60
25352;DHT22;13304;48.464;8.712;2023-06-22T03:19:00;23.10;80.60
25352;DHT22;13304;48.464;8.712;2023-06-22T03:21:28;23.00;80.60
25352;DHT22;13304;48.464;8.712;2023-06-22T03:23:54;23.00;80.60
25352;DHT22;13304;48.464;8.712;2023-06-22T03:26:22;23.00;80.60
25352;DHT22;13304;48.464;8.712;2023-06-22T03:28:48;23.00;80.50
25352;DHT22;13304;48.464;8.712;2023-06-22T03:31:15;23.00;80.60
25352;DHT22;13304;48.464;8.712;2023-06-22T03:33:40;23.00;80.60
25352;DHT22;13304;48.464;8.712;2023-06-22T03:36:06;23.00;80.60
25352;DHT22;13304;48.464;8.712;2023-06-22T03:38:32;23.00;80.70
25352;DHT22;13304;48.464;8.712;2023-06-22T03:40:59;22.90;80.70
25352;DHT22;13304;48.464;8.712;2023-06-22T03:43:25;22.90;80.70
25352;DHT22;13304;48.464;8.712;2023-06-22T03:45:51;22.90;80.80
25352;DHT22;13304;48.464;8.712;2023-06-22T03:48:17;22.90;80.80
25352;DHT22;13304;48.464;8.712;2023-06-22T03:50:43;22.90;80.90
25352;DHT22;13304;48.464;8.712;2023-06-22T03:53:09;22.90;80.90
25352;DHT22;13304;48.464;8.712;2023-06-22T03:55:36;22.90;80.90
25352;DHT22;13304;48.464;8.712;2023-06-22T03:58:02;22.90;80.80
25352;DHT22;13304;48.464;8.712;2023-06-22T04:00:31;22.90;80.90
25352;DHT22;13304;48.464;8.712;2023-06-22T04:02:57;22.90;81.00
25352;DHT22;13304;48.464;8.712;2023-06-22T04:05:23;22.90;81.10
25352;DHT22;13304;48.464;8.712;2023-06-22T04:07:49;22.90;81.40
25352;DHT22;13304;48.464;8.712;2023-06-22T04:10:15;22.80;81.40
25352;DHT22;13304;48.464;8.712;2023-06-22T04:12:41;22.90;81.70
25352;DHT22;13304;48.464;8.712;2023-06-22T04:15:07;22.90;81.70
25352;DHT22;13304;48.464;8.712;2023-06-22T04:17:33;22.90;81.70
25352;DHT22;13304;48.464;8.712;2023-06-22T04:19:59;22.90;81.70
25352;DHT22;13304;48.464;8.712;2023-06-22T04:22:24;22.90;81.70
25352;DHT22;13304;48.464;8.712;2023-06-22T04:24:53;22.90;81.80
25352;DHT22;13304;48.464;8.712;2023-06-22T04:27:19;22.90;81.90
25352;DHT22;13304;48.464;8.712;2023-06-22T04:29:45;22.90;81.90
25352;DHT22;13304;48.464;8.712;2023-06-22T04:32:16;22.90;81.60
25352;DHT22;13304;48.464;8.712;2023-06-22T04:34:42;23.00;81.20
25352;DHT22;13304;48.464;8.712;2023-06-22T04:37:08;23.00;81.20
25352;DHT22;13304;48.464;8.712;2023-06-22T04:39:36;23.00;81.40
25352;DHT22;13304;48.464;8.712;2023-06-22T04:42:02;23.00;81.70
25352;DHT22;13304;48.464;8.712;2023-06-22T04:44:29;23.00;82.10
25352;DHT22;13304;48.464;8.712;2023-06-22T04:46:59;23.00;82.30
25352;DHT22;13304;48.464;8.712;2023-06-22T04:49:34;23.10;82.60
25352;DHT22;13304;48.464;8.712;2023-06-22T04:52:09;23.20;82.60
25352;DHT22;13304;48.464;8.712;2023-06-22T04:54:38;23.20;82.30
25352;DHT22;13304;48.464;8.712;2023-06-22T04:57:06;23.30;82.30
25352;DHT22;13304;48.464;8.712;2023-06-22T04:59:36;23.40;82.20
25352;DHT22;13304;48.464;8.712;2023-06-22T05:02:05;23.40;81.90
25352;DHT22;13304;48.464;8.712;2023-06-22T05:04:31;23.40;81.80
25352;DHT22;13304;48.464;8.712;2023-06-22T05:06:58;23.50;81.70
25352;DHT22;13304;48.464;8.712;2023-06-22T05:09:25;23.60;81.20
25352;DHT22;13304;48.464;8.712;2023-06-22T05:11:51;23.60;80.90
25352;DHT22;13304;48.464;8.712;2023-06-22T05:14:18;23.60;80.70
25352;DHT22;13304;48.464;8.712;2023-06-22T05:16:44;23.70;80.60
25352;DHT22;13304;48.464;8.712;2023-06-22T05:19:11;23.60;80.40
25352;DHT22;13304;48.464;8.712;2023-06-22T05:21:37;23.70;80.40
25352;DHT22;13304;48.464;8.712;2023-06-22T05:24:04;23.70;80.20
25352;DHT22;13304;48.464;8.712;2023-06-22T05:26:34;23.70;80.10
25352;DHT22;13304;48.464;8.712;2023-06-22T05:29:02;23.70;80.20
25352;DHT22;13304;48.464;8.712;2023-06-22T05:31:28;23.70;80.00
25352;DHT22;13304;48.464;8.712;2023-06-22T05:33:54;23.70;80.00
25352;DHT22;13304;48.464;8.712;2023-06-22T05:36:21;23.80;80.20
25352;DHT22;13304;48.464;8.712;2023-06-22T05:38:55;23.80;80.30
25352;DHT22;13304;48.464;8.712;2023-06-22T05:41:21;23.80;80.00
25352;DHT22;13304;48.464;8.712;2023-06-22T05:43:47;23.80;79.80
25352;DHT22;13304;48.464;8.712;2023-06-22T05:46:13;23.80;79.80
25352;DHT22;13304;48.464;8.712;2023-06-22T05:48:38;23.80;79.70
25352;DHT22;13304;48.464;8.712;2023-06-22T05:51:04;23.80;79.70
25352;DHT22;13304;48.464;8.712;2023-06-22T05:53:30;23.80;79.60
25352;DHT22;13304;48.464;8.712;2023-06-22T05:55:57;23.80;79.50
25352;DHT22;13304;48.464;8.712;2023-06-22T05:58:22;23.90;79.60
25352;DHT22;13304;48.464;8.712;2023-06-22T06:00:48;23.90;79.80
25352;DHT22;13304;48.464;8.712;2023-06-22T06:03:14;23.90;80.10
25352;DHT22;13304;48.464;8.712;2023-06-22T06:05:42;23.90;80.00
25352;DHT22;13304;48.464;8.712;2023-06-22T06:08:08;24.00;80.10
25352;DHT22;13304;48.464;8.712;2023-06-22T06:10:37;23.90;80.60
25352;DHT22;13304;48.464;8.712;2023-06-22T06:13:03;24.00;80.20
25352;DHT22;13304;48.464;8.712;2023-06-22T06:15:30;24.10;80.00
25352;DHT22;13304;48.464;8.712;2023-06-22T06:17:57;24.10;79.70
25352;DHT22;13304;48.464;8.712;2023-06-22T06:20:24;24.10;79.60
25352;DHT22;13304;48.464;8.712;2023-06-22T06:22:51;24.20;79.60
25352;DHT22;13304;48.464;8.712;2023-06-22T06:25:19;24.20;79.50
25352;DHT22;13304;48.464;8.712;2023-06-22T06:27:48;24.20;79.50
25352;DHT22;13304;48.464;8.712;2023-06-22T06:30:15;24.20;79.40
25352;DHT22;13304;48.464;8.712;2023-06-22T06:32:42;24.30;79.30
25352;DHT22;13304;48.464;8.712;2023-06-22T06:35:09;24.30;79.30
25352;DHT22;13304;48.464;8.712;2023-06-22T06:37:43;24.40;78.90
25352;DHT22;13304;48.464;8.712;2023-06-22T06:40:16;24.40;78.30
25352;DHT22;13304;48.464;8.712;2023-06-22T06:42:49;24.40;78.20
25352;DHT22;13304;48.464;8.712;2023-06-22T06:45:22;24.40;77.70
25352;DHT22;13304;48.464;8.712;2023-06-22T06:47:49;24.50;77.90
25352;DHT22;13304;48.464;8.712;2023-06-22T06:50:15;24.50;77.90
25352;DHT22;13304;48.464;8.712;2023-06-22T06:52:41;24.60;78.10
25352;DHT22;13304;48.464;8.712;2023-06-22T06:55:08;24.60;77.90
25352;DHT22;13304;48.464;8.712;2023-06-22T06:57:37;24.60;77.90
25352;DHT22;13304;48.464;8.712;2023-06-22T07:00:07;24.70;78.50
25352;DHT22;13304;48.464;8.712;2023-06-22T07:02:38;24.70;78.30
25352;DHT22;13304;48.464;8.712;2023-06-22T07:05:05;24.80;78.20
25352;DHT22;13304;48.464;8.712;2023-06-22T07:07:31;24.80;78.20
25352;DHT22;13304;48.464;8.712;2023-06-22T07:09:57;24.80;78.10
25352;DHT22;13304;48.464;8.712;2023-06-22T07:12:23;24.90;77.50
25352;DHT22;13304;48.464;8.712;2023-06-22T07:14:48;24.90;76.60
25352;DHT22;13304;48.464;8.712;2023-06-22T07:17:15;25.00;76.50
25352;DHT22;13304;48.464;8.712;2023-06-22T07:19:41;25.00;76.30
25352;DHT22;13304;48.464;8.712;2023-06-22T07:22:07;25.00;76.40
25352;DHT22;13304;48.464;8.712;2023-06-22T07:24:33;25.10;76.60
25352;DHT22;13304;48.464;8.712;2023-06-22T07:26:59;25.10;76.90
25352;DHT22;13304;48.464;8.712;2023-06-22T07:29:25;25.20;76.70
25352;DHT22;13304;48.464;8.712;2023-06-22T07:31:52;25.20;76.10
25352;DHT22;13304;48.464;8.712;2023-06-22T07:34:18;25.30;76.30
25352;DHT22;13304;48.464;8.712;2023-06-22T07:36:45;25.40;76.20
25352;DHT22;13304;48.464;8.712;2023-06-22T07:39:11;25.40;76.00
25352;DHT22;13304;48.464;8.712;2023-06-22T07:41:39;25.50;75.50
25352;DHT22;13304;48.464;8.712;2023-06-22T07:44:06;25.50;75.00
25352;DHT22;13304;48.464;8.712;2023-06-22T07:46:33;25.50;75.10
25352;DHT22;13304;48.464;8.712;2023-06-22T07:49:02;25.60;75.40
25352;DHT22;13304;48.464;8.712;2023-06-22T07:51:28;25.70;75.30
25352;DHT22;13304;48.464;8.712;2023-06-22T07:53:54;25.70;74.90
25352;DHT22;13304;48.464;8.712;2023-06-22T07:56:20;25.80;74.60
25352;DHT22;13304;48.464;8.712;2023-06-22T07:58:47;25.90;74.90
25352;DHT22;13304;48.464;8.712;2023-06-22T08:01:14;25.90;74.30
25352;DHT22;13304;48.464;8.712;2023-06-22T08:03:41;26.00;74.30
25352;DHT22;13304;48.464;8.712;2023-06-22T08:06:07;26.10;73.80
25352;DHT22;13304;48.464;8.712;2023-06-22T08:08:35;26.20;73.10
25352;DHT22;13304;48.464;8.712;2023-06-22T08:11:01;26.20;73.00
25352;DHT22;13304;48.464;8.712;2023-06-22T08:13:26;26.20;72.80
25352;DHT22;13304;48.464;8.712;2023-06-22T08:15:52;26.20;72.90
25352;DHT22;13304;48.464;8.712;2023-06-22T08:18:18;26.30;72.80
25352;DHT22;13304;48.464;8.712;2023-06-22T08:20:43;26.30;72.60
25352;DHT22;13304;48.464;8.712;2023-06-22T08:23:09;26.40;72.90
25352;DHT22;13304;48.464;8.712;2023-06-22T08:25:36;26.40;73.00
25352;DHT22;13304;48.464;8.712;2023-06-22T08:28:03;26.40;73.00
25352;DHT22;13304;48.464;8.712;2023-06-22T08:30:29;26.50;73.00
25352;DHT22;13304;48.464;8.712;2023-06-22T08:32:55;26.60;72.70
25352;DHT22;13304;48.464;8.712;2023-06-22T08:35:24;26.60;72.30
25352;DHT22;13304;48.464;8.712;2023-06-22T08:37:50;26.60;71.90
25352;DHT22;13304;48.464;8.712;2023-06-22T08:40:20;26.70;72.30
25352;DHT22;13304;48.464;8.712;2023-06-22T08:42:47;26.70;71.70
25352;DHT22;13304;48.464;8.712;2023-06-22T08:45:13;26.80;72.20
25352;DHT22;13304;48.464;8.712;2023-06-22T08:47:40;26.80;72.10
25352;DHT22;13304;48.464;8.712;2023-06-22T08:50:07;26.90;72.10
25352;DHT22;13304;48.464;8.712;2023-06-22T08:52:34;27.00;71.90
25352;DHT22;13304;48.464;8.712;2023-06-22T08:55:01;27.00;71.80
25352;DHT22;13304;48.464;8.712;2023-06-22T08:57:27;27.10;71.30
25352;DHT22;13304;48.464;8.712;2023-06-22T08:59:53;27.20;71.20
25352;DHT22;13304;48.464;8.712;2023-06-22T09:02:24;27.30;71.10
25352;DHT22;13304;48.464;8.712;2023-06-22T09:04:50;27.30;70.50
25352;DHT22;13304;48.464;8.712;2023-06-22T09:07:22;27.40;69.90
25352;DHT22;13304;48.464;8.712;2023-06-22T09:09:49;27.40;69.90
25352;DHT22;13304;48.464;8.712;2023-06-22T09:12:15;27.40;70.10
25352;DHT22;13304;48.464;8.712;2023-06-22T09:14:41;27.50;69.20
25352;DHT22;13304;48.464;8.712;2023-06-22T09:17:06;27.50;69.20
25352;DHT22;13304;48.464;8.712;2023-06-22T09:19:32;27.50;69.30
25352;DHT22;13304;48.464;8.712;2023-06-22T09:21:58;27.50;69.40
25352;DHT22;13304;48.464;8.712;2023-06-22T09:24:24;27.60;69.10
25352;DHT22;13304;48.464;8.712;2023-06-22T09:26:50;27.70;68.40
25352;DHT22;13304;48.464;8.712;2023-06-22T09:29:17;27.70;68.50
25352;DHT22;13304;48.464;8.712;2023-06-22T09:31:43;27.80;68.40
25352;DHT22;13304;48.464;8.712;2023-06-22T09:34:09;27.80;69.00
25352;DHT22;13304;48.464;8.712;2023-06-22T09:36:35;27.90;69.90
25352;DHT22;13304;48.464;8.712;2023-06-22T09:39:02;27.90;68.90
25352;DHT22;13304;48.464;8.712;2023-06-22T09:41:31;28.00;67.90
25352;DHT22;13304;48.464;8.712;2023-06-22T09:43:57;28.10;67.70
25352;DHT22;13304;48.464;8.712;2023-06-22T09:46:23;28.20;67.30
25352;DHT22;13304;48.464;8.712;2023-06-22T09:48:51;28.20;66.80
25352;DHT22;13304;48.464;8.712;2023-06-22T09:51:17;28.30;64.90
25352;DHT22;13304;48.464;8.712;2023-06-22T09:53:45;28.40;65.90
25352;DHT22;13304;48.464;8.712;2023-06-22T09:56:11;28.40;66.50
25352;DHT22;13304;48.464;8.712;2023-06-22T09:58:44;28.50;66.60
25352;DHT22;13304;48.464;8.712;2023-06-22T10:01:10;28.60;66.90
25352;DHT22;13304;48.464;8.712;2023-06-22T10:03:36;28.60;66.10
25352;DHT22;13304;48.464;8.712;2023-06-22T10:06:02;28.70;66.50
25352;DHT22;13304;48.464;8.712;2023-06-22T10:08:35;28.80;66.40
25352;DHT22;13304;48.464;8.712;2023-06-22T10:11:02;28.80;65.20
25352;DHT22;13304;48.464;8.712;2023-06-22T10:13:28;29.00;65.90
25352;DHT22;13304;48.464;8.712;2023-06-22T10:15:54;29.00;66.50
25352;DHT22;13304;48.464;8.712;2023-06-22T10:18:20;29.10;65.20
25352;DHT22;13304;48.464;8.712;2023-06-22T10:20:48;29.20;65.00
25352;DHT22;13304;48.464;8.712;2023-06-22T10:23:16;29.20;64.00
25352;DHT22;13304;48.464;8.712;2023-06-22T10:25:42;29.30;63.50
25352;DHT22;13304;48.464;8.712;2023-06-22T10:28:08;29.30;63.40
25352;DHT22;13304;48.464;8.712;2023-06-22T10:30:34;29.40;64.60
25352;DHT22;13304;48.464;8.712;2023-06-22T10:32:59;29.40;63.60
25352;DHT22;13304;48.464;8.712;2023-06-22T10:35:25;29.40;63.10
25352;DHT22;13304;48.464;8.712;2023-06-22T10:37:52;29.50;63.60
25352;DHT22;13304;48.464;8.712;2023-06-22T10:40:19;29.60;63.20
25352;DHT22;13304;48.464;8.712;2023-06-22T10:42:45;29.50;63.10
25352;DHT22;13304;48.464;8.712;2023-06-22T10:45:11;29.70;62.80
25352;DHT22;13304;48.464;8.712;2023-06-22T10:47:37;29.80;62.40
25352;DHT22;13304;48.464;8.712;2023-06-22T10:50:04;29.80;62.00
25352;DHT22;13304;48.464;8.712;2023-06-22T10:52:30;29.80;61.80
25352;DHT22;13304;48.464;8.712;2023-06-22T10:54:55;29.90;61.00
25352;DHT22;13304;48.464;8.712;2023-06-22T10:57:22;29.90;61.10
25352;DHT22;13304;48.464;8.712;2023-06-22T10:59:54;30.00;61.20
25352;DHT22;13304;48.464;8.712;2023-06-22T11:02:19;30.00;60.20
25352;DHT22;13304;48.464;8.712;2023-06-22T11:04:45;30.10;61.70
25352;DHT22;13304;48.464;8.712;2023-06-22T11:07:11;30.10;61.40
25352;DHT22;13304;48.464;8.712;2023-06-22T11:09:37;30.20;61.20
25352;DHT22;13304;48.464;8.712;2023-06-22T11:12:05;30.30;62.50
25352;DHT22;13304;48.464;8.712;2023-06-22T11:14:31;30.40;60.50
25352;DHT22;13304;48.464;8.712;2023-06-22T11:16:59;30.50;60.50
25352;DHT22;13304;48.464;8.712;2023-06-22T11:19:25;30.50;59.60
25352;DHT22;13304;48.464;8.712;2023-06-22T11:21:53;30.60;59.30
25352;DHT22;13304;48.464;8.712;2023-06-22T11:24:19;30.50;58.80
25352;DHT22;13304;48.464;8.712;2023-06-22T11:26:45;30.60;59.30
25352;DHT22;13304;48.464;8.712;2023-06-22T11:29:12;30.60;58.90
25352;DHT22;13304;48.464;8.712;2023-06-22T11:31:38;30.60;58.90
25352;DHT22;13304;48.464;8.712;2023-06-22T11:34:03;30.50;59.00
25352;DHT22;13304;48.464;8.712;2023-06-22T11:36:29;30.50;59.40
25352;DHT22;13304;48.464;8.712;2023-06-22T11:38:59;30.40;59.50
25352;DHT22;13304;48.464;8.712;2023-06-22T11:41:25;30.40;60.10
25352;DHT22;13304;48.464;8.712;2023-06-22T11:43:51;30.30;60.00
25352;DHT22;13304;48.464;8.712;2023-06-22T11:46:16;30.30;60.70
25352;DHT22;13304;48.464;8.712;2023-06-22T11:48:42;30.20;61.20
25352;DHT22;13304;48.464;8.712;2023-06-22T11:51:08;30.20;61.50
25352;DHT22;13304;48.464;8.712;2023-06-22T11:53:34;30.10;61.90
25352;DHT22;13304;48.464;8.712;2023-06-22T11:56:00;30.10;61.80
25352;DHT22;13304;48.464;8.712;2023-06-22T11:58:26;30.10;61.40
25352;DHT22;13304;48.464;8.712;2023-06-22T12:00:53;30.10;61.40
25352;DHT22;13304;48.464;8.712;2023-06-22T12:03:19;30.10;61.00
25352;DHT22;13304;48.464;8.712;2023-06-22T12:05:46;30.10;60.50
25352;DHT22;13304;48.464;8.712;2023-06-22T12:08:12;30.10;60.40
25352;DHT22;13304;48.464;8.712;2023-06-22T12:10:39;30.00;61.30
25352;DHT22;13304;48.464;8.712;2023-06-22T12:13:04;30.10;60.60
25352;DHT22;13304;48.464;8.712;2023-06-22T12:15:30;30.00;60.80
25352;DHT22;13304;48.464;8.712;2023-06-22T12:17:56;30.00;61.20
25352;DHT22;13304;48.464;8.712;2023-06-22T12:20:22;30.10;60.90
25352;DHT22;13304;48.464;8.712;2023-06-22T12:22:47;30.10;61.20
25352;DHT22;13304;48.464;8.712;2023-06-22T12:25:13;30.10;61.50
25352;DHT22;13304;48.464;8.712;2023-06-22T12:27:39;30.10;61.30
25352;DHT22;13304;48.464;8.712;2023-06-22T12:30:05;30.10;61.60
25352;DHT22;13304;48.464;8.712;2023-06-22T12:32:31;30.20;61.80
25352;DHT22;13304;48.464;8.712;2023-06-22T12:34:57;30.20;61.80
25352;DHT22;13304;48.464;8.712;2023-06-22T12:37:23;30.20;61.40
25352;DHT22;13304;48.464;8.712;2023-06-22T12:39:49;30.20;61.70
25352;DHT22;13304;48.464;8.712;2023-06-22T12:42:16;30.20;62.20
25352;DHT22;13304;48.464;8.712;2023-06-22T12:44:42;30.20;61.90
25352;DHT22;13304;48.464;8.712;2023-06-22T12:47:08;30.20;61.60
25352;DHT22;13304;48.464;8.712;2023-06-22T12:49:35;30.20;61.10
25352;DHT22;13304;48.464;8.712;2023-06-22T12:52:04;30.20;60.90
25352;DHT22;13304;48.464;8.712;2023-06-22T12:54:33;30.20;60.70
25352;DHT22;13304;48.464;8.712;2023-06-22T12:56:59;30.20;61.10
25352;DHT22;13304;48.464;8.712;2023-06-22T12:59:25;30.10;61.50
25352;DHT22;13304;48.464;8.712;2023-06-22T13:01:51;30.10;61.90
25352;DHT22;13304;48.464;8.712;2023-06-22T13:04:17;30.10;62.50
25352;DHT22;13304;48.464;8.712;2023-06-22T13:06:45;30.10;62.70
25352;DHT22;13304;48.464;8.712;2023-06-22T13:09:13;30.10;62.50
25352;DHT22;13304;48.464;8.712;2023-06-22T13:11:40;30.00;62.70
25352;DHT22;13304;48.464;8.712;2023-06-22T13:14:06;30.00;62.80
25352;DHT22;13304;48.464;8.712;2023-06-22T13:16:32;30.00;62.50
25352;DHT22;13304;48.464;8.712;2023-06-22T13:18:58;30.00;62.00
25352;DHT22;13304;48.464;8.712;2023-06-22T13:21:23;30.00;62.00
25352;DHT22;13304;48.464;8.712;2023-06-22T13:23:49;30.00;62.30
25352;DHT22;13304;48.464;8.712;2023-06-22T13:26:15;30.00;62.30
25352;DHT22;13304;48.464;8.712;2023-06-22T13:28:40;30.00;62.40
25352;DHT22;13304;48.464;8.712;2023-06-22T13:31:06;30.00;62.70
25352;DHT22;13304;48.464;8.712;2023-06-22T13:33:33;29.90;63.00
25352;DHT22;13304;48.464;8.712;2023-06-22T13:35:58;30.00;63.10
25352;DHT22;13304;48.464;8.712;2023-06-22T13:38:24;30.00;63.50
25352;DHT22;13304;48.464;8.712;2023-06-22T13:40:50;30.00;63.70
25352;DHT22;13304;48.464;8.712;2023-06-22T13:43:16;30.00;64.20
25352;DHT22;13304;48.464;8.712;2023-06-22T13:45:42;30.10;63.90
25352;DHT22;13304;48.464;8.712;2023-06-22T13:48:09;30.10;63.40
25352;DHT22;13304;48.464;8.712;2023-06-22T13:50:34;30.20;60.10
25352;DHT22;13304;48.464;8.712;2023-06-22T13:53:00;30.20;58.70
25352;DHT22;13304;48.464;8.712;2023-06-22T13:55:26;30.20;56.30
25352;DHT22;13304;48.464;8.712;2023-06-22T13:57:52;30.30;54.80
25352;DHT22;13304;48.464;8.712;2023-06-22T14:00:19;30.30;54.10
25352;DHT22;13304;48.464;8.712;2023-06-22T14:02:45;30.40;53.70
25352;DHT22;13304;48.464;8.712;2023-06-22T14:05:10;30.50;53.70
25352;DHT22;13304;48.464;8.712;2023-06-22T14:07:36;30.50;53.60
25352;DHT22;13304;48.464;8.712;2023-06-22T14:10:06;30.50;52.00
25352;DHT22;13304;48.464;8.712;2023-06-22T14:12:32;30.50;51.70
25352;DHT22;13304;48.464;8.712;2023-06-22T14:14:57;30.50;52.20
25352;DHT22;13304;48.464;8.712;2023-06-22T14:17:23;30.50;52.20
25352;DHT22;13304;48.464;8.712;2023-06-22T14:19:52;30.50;50.50
25352;DHT22;13304;48.464;8.712;2023-06-22T14:22:21;30.50;50.20
25352;DHT22;13304;48.464;8.712;2023-06-22T14:24:48;30.50;49.70
25352;DHT22;13304;48.464;8.712;2023-06-22T14:27:14;30.50;49.40
25352;DHT22;13304;48.464;8.712;2023-06-22T14:29:40;30.60;50.10
25352;DHT22;13304;48.464;8.712;2023-06-22T14:32:06;30.60;50.20
25352;DHT22;13304;48.464;8.712;2023-06-22T14:34:33;30.60;50.30
25352;DHT22;13304;48.464;8.712;2023-06-22T14:37:01;30.60;48.80
25352;DHT22;13304;48.464;8.712;2023-06-22T14:39:27;30.70;48.20
25352;DHT22;13304;48.464;8.712;2023-06-22T14:41:53;30.70;47.80
25352;DHT22;13304;48.464;8.712;2023-06-22T14:44:19;30.70;47.50
25352;DHT22;13304;48.464;8.712;2023-06-22T14:46:45;30.70;46.90
25352;DHT22;13304;48.464;8.712;2023-06-22T14:49:10;30.70;47.20
25352;DHT22;13304;48.464;8.712;2023-06-22T14:51:36;30.70;47.10
25352;DHT22;13304;48.464;8.712;2023-06-22T14:54:02;30.80;47.50
25352;DHT22;13304;48.464;8.712;2023-06-22T14:56:28;30.80;47.60
25352;DHT22;13304;48.464;8.712;2023-06-22T14:58:53;30.90;47.90
25352;DHT22;13304;48.464;8.712;2023-06-22T15:01:19;30.90;48.40
25352;DHT22;13304;48.464;8.712;2023-06-22T15:03:45;30.90;48.20
25352;DHT22;13304;48.464;8.712;2023-06-22T15:06:10;30.90;48.00
25352;DHT22;13304;48.464;8.712;2023-06-22T15:08:40;31.00;48.30
25352;DHT22;13304;48.464;8.712;2023-06-22T15:11:06;30.90;46.80
25352;DHT22;13304;48.464;8.712;2023-06-22T15:13:33;30.90;46.90
25352;DHT22;13304;48.464;8.712;2023-06-22T15:16:00;30.90;47.00
25352;DHT22;13304;48.464;8.712;2023-06-22T15:18:25;30.80;46.10
25352;DHT22;13304;48.464;8.712;2023-06-22T15:20:52;30.70;46.10
25352;DHT22;13304;48.464;8.712;2023-06-22T15:23:18;30.70;46.10
25352;DHT22;13304;48.464;8.712;2023-06-22T15:25:44;30.60;46.80
25352;DHT22;13304;48.464;8.712;2023-06-22T15:28:11;30.50;46.80
25352;DHT22;13304;48.464;8.712;2023-06-22T15:30:37;30.40;47.30
25352;DHT22;13304;48.464;8.712;2023-06-22T15:33:03;30.40;48.00
25352;DHT22;13304;48.464;8.712;2023-06-22T15:35:28;30.40;48.00